sensor_id;sensor_type;location;lat;lon;timestamp;temperature;humidity
68511;SHT31;55512;50.102;19.958;2024-03-08T00:01:04;3.37;69.40
68511;SHT31;55512;50.102;19.958;2024-03-08T00:04:06;3.37;69.40
68511;SHT31;55512;50.102;19.958;2024-03-08T00:06:59;3.37;69.38
68511;SHT31;55512;50.102;19.958;2024-03-08T00:09:32;3.36;69.38
68511;SHT31;55512;50.102;19.958;2024-03-08T00:15:19;3.38;69.24
68511;SHT31;55512;50.102;19.958;2024-03-08T00:18:05;3.38;69.10
68511;SHT31;55512;50.102;19.958;2024-03-08T00:20:55;3.38;69.10
68511;SHT31;55512;50.102;19.958;2024-03-08T00:23:34;3.39;69.02
68511;SHT31;55512;50.102;19.958;2024-03-08T00:26:13;3.39;68.89
68511;SHT31;55512;50.102;19.958;2024-03-08T00:28:47;3.39;68.70
68511;SHT31;55512;50.102;19.958;2024-03-08T00:31:47;3.38;68.53
68511;SHT31;55512;50.102;19.958;2024-03-08T00:34:42;3.37;68.50
68511;SHT31;55512;50.102;19.958;2024-03-08T00:37:52;3.37;68.41
68511;SHT31;55512;50.102;19.958;2024-03-08T00:40:21;3.37;68.40
68511;SHT31;55512;50.102;19.958;2024-03-08T00:43:09;3.35;68.28
68511;SHT31;55512;50.102;19.958;2024-03-08T00:45:46;3.33;68.15
68511;SHT31;55512;50.102;19.958;2024-03-08T00:51:29;3.32;68.21
68511;SHT31;55512;50.102;19.958;2024-03-08T00:54:00;3.32;68.21
68511;SHT31;55512;50.102;19.958;2024-03-08T00:57:07;3.32;68.27
68511;SHT31;55512;50.102;19.958;2024-03-08T01:06:24;3.31;68.20
68511;SHT31;55512;50.102;19.958;2024-03-08T01:09:00;3.31;68.21
68511;SHT31;55512;50.102;19.958;2024-03-08T01:11:28;3.30;68.14
68511;SHT31;55512;50.102;19.958;2024-03-08T01:14:01;3.30;68.19
68511;SHT31;55512;50.102;19.958;2024-03-08T01:17:05;3.30;68.27
68511;SHT31;55512;50.102;19.958;2024-03-08T01:20:05;3.30;68.26
68511;SHT31;55512;50.102;19.958;2024-03-08T01:22:59;3.29;68.30
68511;SHT31;55512;50.102;19.958;2024-03-08T01:25:44;3.30;68.30
68511;SHT31;55512;50.102;19.958;2024-03-08T01:28:33;3.31;68.33
68511;SHT31;55512;50.102;19.958;2024-03-08T01:31:04;3.31;68.27
68511;SHT31;55512;50.102;19.958;2024-03-08T01:33:38;3.31;68.20
68511;SHT31;55512;50.102;19.958;2024-03-08T01:36:24;3.31;68.13
68511;SHT31;55512;50.102;19.958;2024-03-08T01:39:02;3.31;68.05
68511;SHT31;55512;50.102;19.958;2024-03-08T01:41:52;3.31;68.00
68511;SHT31;55512;50.102;19.958;2024-03-08T01:44:51;3.30;67.95
68511;SHT31;55512;50.102;19.958;2024-03-08T01:50:21;3.30;67.84
68511;SHT31;55512;50.102;19.958;2024-03-08T01:52:49;3.29;67.82
68511;SHT31;55512;50.102;19.958;2024-03-08T01:55:26;3.29;67.81
68511;SHT31;55512;50.102;19.958;2024-03-08T01:58:07;3.28;67.85
68511;SHT31;55512;50.102;19.958;2024-03-08T02:00:38;3.28;67.89
68511;SHT31;55512;50.102;19.958;2024-03-08T02:06:17;3.27;67.65
68511;SHT31;55512;50.102;19.958;2024-03-08T02:09:16;3.26;67.62
68511;SHT31;55512;50.102;19.958;2024-03-08T02:12:23;3.25;67.53
68511;SHT31;55512;50.102;19.958;2024-03-08T02:15:18;3.24;67.48
68511;SHT31;55512;50.102;19.958;2024-03-08T02:18:46;3.23;67.48
68511;SHT31;55512;50.102;19.958;2024-03-08T02:21:17;3.22;67.49
68511;SHT31;55512;50.102;19.958;2024-03-08T02:23:43;3.23;67.50
68511;SHT31;55512;50.102;19.958;2024-03-08T02:26:29;3.22;67.37
68511;SHT31;55512;50.102;19.958;2024-03-08T02:29:06;3.22;67.31
68511;SHT31;55512;50.102;19.958;2024-03-08T02:31:38;3.21;67.32
68511;SHT31;55512;50.102;19.958;2024-03-08T02:37:00;3.21;67.37
68511;SHT31;55512;50.102;19.958;2024-03-08T02:39:37;3.22;67.35
68511;SHT31;55512;50.102;19.958;2024-03-08T02:42:13;3.22;67.40
68511;SHT31;55512;50.102;19.958;2024-03-08T02:45:16;3.21;67.44
68511;SHT31;55512;50.102;19.958;2024-03-08T02:48:03;3.21;67.50
68511;SHT31;55512;50.102;19.958;2024-03-08T02:50:54;3.21;67.60
68511;SHT31;55512;50.102;19.958;2024-03-08T02:53:29;3.21;67.60
68511;SHT31;55512;50.102;19.958;2024-03-08T02:59:29;3.20;67.51
68511;SHT31;55512;50.102;19.958;2024-03-08T03:02:12;3.20;67.48
68511;SHT31;55512;50.102;19.958;2024-03-08T03:04:52;3.19;67.40
68511;SHT31;55512;50.102;19.958;2024-03-08T03:07:34;3.19;67.39
68511;SHT31;55512;50.102;19.958;2024-03-08T03:20:07;3.17;67.30
68511;SHT31;55512;50.102;19.958;2024-03-08T03:26:06;3.16;67.28
68511;SHT31;55512;50.102;19.958;2024-03-08T03:28:38;3.15;67.29
68511;SHT31;55512;50.102;19.958;2024-03-08T03:31:31;3.14;67.30
68511;SHT31;55512;50.102;19.958;2024-03-08T03:37:10;3.13;67.22
68511;SHT31;55512;50.102;19.958;2024-03-08T03:39:47;3.13;67.27
68511;SHT31;55512;50.102;19.958;2024-03-08T03:42:32;3.14;67.30
68511;SHT31;55512;50.102;19.958;2024-03-08T03:48:19;3.15;67.20
68511;SHT31;55512;50.102;19.958;2024-03-08T03:50:51;3.15;67.21
68511;SHT31;55512;50.102;19.958;2024-03-08T03:53:41;3.15;67.20
68511;SHT31;55512;50.102;19.958;2024-03-08T03:59:04;3.13;67.30
68511;SHT31;55512;50.102;19.958;2024-03-08T04:01:56;3.13;67.30
68511;SHT31;55512;50.102;19.958;2024-03-08T04:05:12;3.12;67.30
68511;SHT31;55512;50.102;19.958;2024-03-08T04:08:05;3.11;67.30
68511;SHT31;55512;50.102;19.958;2024-03-08T04:13:28;3.09;67.40
68511;SHT31;55512;50.102;19.958;2024-03-08T04:19:06;3.08;67.40
68511;SHT31;55512;50.102;19.958;2024-03-08T04:21:53;3.07;67.40
68511;SHT31;55512;50.102;19.958;2024-03-08T04:24:36;3.07;67.41
68511;SHT31;55512;50.102;19.958;2024-03-08T04:27:25;3.06;67.38
68511;SHT31;55512;50.102;19.958;2024-03-08T04:30:15;3.03;67.39
68511;SHT31;55512;50.102;19.958;2024-03-08T04:32:56;3.02;67.42
68511;SHT31;55512;50.102;19.958;2024-03-08T04:35:35;3.01;67.35
68511;SHT31;55512;50.102;19.958;2024-03-08T04:38:20;2.97;67.30
68511;SHT31;55512;50.102;19.958;2024-03-08T04:41:30;2.94;67.39
68511;SHT31;55512;50.102;19.958;2024-03-08T04:44:05;2.94;67.43
68511;SHT31;55512;50.102;19.958;2024-03-08T04:49:42;2.92;67.59
68511;SHT31;55512;50.102;19.958;2024-03-08T04:52:14;2.93;67.67
68511;SHT31;55512;50.102;19.958;2024-03-08T04:54:52;2.93;67.70
68511;SHT31;55512;50.102;19.958;2024-03-08T04:57:37;2.92;67.70
68511;SHT31;55512;50.102;19.958;2024-03-08T05:00:15;2.91;67.77
68511;SHT31;55512;50.102;19.958;2024-03-08T05:06:01;2.90;67.82
68511;SHT31;55512;50.102;19.958;2024-03-08T05:08:39;2.90;67.89
68511;SHT31;55512;50.102;19.958;2024-03-08T05:11:16;2.90;67.91
68511;SHT31;55512;50.102;19.958;2024-03-08T05:13:50;2.91;68.00
68511;SHT31;55512;50.102;19.958;2024-03-08T05:16:18;2.93;68.00
68511;SHT31;55512;50.102;19.958;2024-03-08T05:18:52;2.92;68.00
68511;SHT31;55512;50.102;19.958;2024-03-08T05:21:33;2.91;68.00
68511;SHT31;55512;50.102;19.958;2024-03-08T05:24:14;2.92;68.00
68511;SHT31;55512;50.102;19.958;2024-03-08T05:26:52;2.90;67.95
68511;SHT31;55512;50.102;19.958;2024-03-08T05:29:34;2.89;67.96
68511;SHT31;55512;50.102;19.958;2024-03-08T05:32:12;2.90;67.99
68511;SHT31;55512;50.102;19.958;2024-03-08T05:34:54;2.90;68.02
68511;SHT31;55512;50.102;19.958;2024-03-08T05:37:34;2.90;68.05
68511;SHT31;55512;50.102;19.958;2024-03-08T05:43:08;2.92;68.14
68511;SHT31;55512;50.102;19.958;2024-03-08T05:45:47;2.93;68.20
68511;SHT31;55512;50.102;19.958;2024-03-08T05:48:41;2.94;68.20
68511;SHT31;55512;50.102;19.958;2024-03-08T05:51:28;2.95;68.20
68511;SHT31;55512;50.102;19.958;2024-03-08T05:57:00;2.97;68.22
68511;SHT31;55512;50.102;19.958;2024-03-08T05:59:36;2.99;68.22
68511;SHT31;55512;50.102;19.958;2024-03-08T06:02:37;2.99;68.18
68511;SHT31;55512;50.102;19.958;2024-03-08T06:05:25;2.97;68.09
68511;SHT31;55512;50.102;19.958;2024-03-08T06:07:51;2.96;68.10
68511;SHT31;55512;50.102;19.958;2024-03-08T06:10:32;2.96;68.12
68511;SHT31;55512;50.102;19.958;2024-03-08T06:13:00;2.97;68.10
68511;SHT31;55512;50.102;19.958;2024-03-08T06:15:58;2.96;68.10
68511;SHT31;55512;50.102;19.958;2024-03-08T06:18:43;2.93;68.08
68511;SHT31;55512;50.102;19.958;2024-03-08T06:21:12;2.94;68.21
68511;SHT31;55512;50.102;19.958;2024-03-08T06:23:41;2.95;68.21
68511;SHT31;55512;50.102;19.958;2024-03-08T06:26:12;2.94;68.25
68511;SHT31;55512;50.102;19.958;2024-03-08T06:29:04;2.96;68.26
68511;SHT31;55512;50.102;19.958;2024-03-08T06:31:46;2.99;68.22
68511;SHT31;55512;50.102;19.958;2024-03-08T06:34:20;3.03;68.15
68511;SHT31;55512;50.102;19.958;2024-03-08T06:39:28;3.09;68.10
68511;SHT31;55512;50.102;19.958;2024-03-08T06:42:12;3.12;68.04
68511;SHT31;55512;50.102;19.958;2024-03-08T06:44:41;3.15;68.01
68511;SHT31;55512;50.102;19.958;2024-03-08T06:47:14;3.16;68.00
68511;SHT31;55512;50.102;19.958;2024-03-08T06:49:43;3.19;67.98
68511;SHT31;55512;50.102;19.958;2024-03-08T06:52:18;3.22;67.82
68511;SHT31;55512;50.102;19.958;2024-03-08T06:54:46;3.23;67.80
68511;SHT31;55512;50.102;19.958;2024-03-08T06:57:15;3.26;67.78
68511;SHT31;55512;50.102;19.958;2024-03-08T06:59:50;3.28;67.73
68511;SHT31;55512;50.102;19.958;2024-03-08T07:02:43;3.34;67.65
68511;SHT31;55512;50.102;19.958;2024-03-08T07:05:34;3.37;67.59
68511;SHT31;55512;50.102;19.958;2024-03-08T07:08:23;3.42;67.51
68511;SHT31;55512;50.102;19.958;2024-03-08T07:10:49;3.46;67.48
68511;SHT31;55512;50.102;19.958;2024-03-08T07:13:20;3.49;67.41
68511;SHT31;55512;50.102;19.958;2024-03-08T07:18:41;3.55;67.20
68511;SHT31;55512;50.102;19.958;2024-03-08T07:21:57;3.58;67.05
68511;SHT31;55512;50.102;19.958;2024-03-08T07:25:10;3.63;66.92
68511;SHT31;55512;50.102;19.958;2024-03-08T07:28:00;3.67;66.81
68511;SHT31;55512;50.102;19.958;2024-03-08T07:34:33;3.80;66.45
68511;SHT31;55512;50.102;19.958;2024-03-08T07:37:15;3.85;66.26
68511;SHT31;55512;50.102;19.958;2024-03-08T07:39:48;3.88;66.11
68511;SHT31;55512;50.102;19.958;2024-03-08T07:42:39;3.93;66.03
68511;SHT31;55512;50.102;19.958;2024-03-08T07:45:18;3.99;65.89
68511;SHT31;55512;50.102;19.958;2024-03-08T07:47:53;4.06;65.80
68511;SHT31;55512;50.102;19.958;2024-03-08T07:50:22;4.13;65.59
68511;SHT31;55512;50.102;19.958;2024-03-08T07:53:00;4.18;65.40
68511;SHT31;55512;50.102;19.958;2024-03-08T07:55:52;4.27;65.22
68511;SHT31;55512;50.102;19.958;2024-03-08T07:58:31;4.36;65.04
68511;SHT31;55512;50.102;19.958;2024-03-08T08:01:21;4.44;64.84
68511;SHT31;55512;50.102;19.958;2024-03-08T08:03:56;4.52;64.66
68511;SHT31;55512;50.102;19.958;2024-03-08T08:06:49;4.65;64.50
68511;SHT31;55512;50.102;19.958;2024-03-08T08:09:16;4.74;64.29
68511;SHT31;55512;50.102;19.958;2024-03-08T08:15:04;4.94;63.94
68511;SHT31;55512;50.102;19.958;2024-03-08T08:17:30;5.03;63.66
68511;SHT31;55512;50.102;19.958;2024-03-08T08:20:10;5.12;63.43
68511;SHT31;55512;50.102;19.958;2024-03-08T08:23:03;5.20;63.19
68511;SHT31;55512;50.102;19.958;2024-03-08T08:25:48;5.30;62.98
68511;SHT31;55512;50.102;19.958;2024-03-08T08:28:43;5.41;62.74
68511;SHT31;55512;50.102;19.958;2024-03-08T08:31:12;5.48;62.51
68511;SHT31;55512;50.102;19.958;2024-03-08T08:33:41;5.58;62.33
68511;SHT31;55512;50.102;19.958;2024-03-08T08:36:23;5.69;62.15
68511;SHT31;55512;50.102;19.958;2024-03-08T08:38:57;5.78;61.83
68511;SHT31;55512;50.102;19.958;2024-03-08T08:44:55;5.93;61.45
68511;SHT31;55512;50.102;19.958;2024-03-08T08:47:47;6.04;61.35
68511;SHT31;55512;50.102;19.958;2024-03-08T08:50:23;6.13;61.18
68511;SHT31;55512;50.102;19.958;2024-03-08T08:56:36;6.23;60.64
68511;SHT31;55512;50.102;19.958;2024-03-08T09:09:00;6.51;59.79
68511;SHT31;55512;50.102;19.958;2024-03-08T09:18:12;6.68;59.09
68511;SHT31;55512;50.102;19.958;2024-03-08T09:21:04;6.66;58.98
68511;SHT31;55512;50.102;19.958;2024-03-08T09:23:35;6.67;58.61
68511;SHT31;55512;50.102;19.958;2024-03-08T09:26:20;6.57;58.26
68511;SHT31;55512;50.102;19.958;2024-03-08T09:29:17;6.42;58.42
68511;SHT31;55512;50.102;19.958;2024-03-08T09:31:46;6.27;58.68
68511;SHT31;55512;50.102;19.958;2024-03-08T09:34:31;6.22;58.72
68511;SHT31;55512;50.102;19.958;2024-03-08T09:37:06;6.15;58.52
68511;SHT31;55512;50.102;19.958;2024-03-08T09:39:59;5.99;58.71
68511;SHT31;55512;50.102;19.958;2024-03-08T09:46:04;5.83;58.81
68511;SHT31;55512;50.102;19.958;2024-03-08T09:48:33;5.72;58.80
68511;SHT31;55512;50.102;19.958;2024-03-08T09:51:30;5.66;59.08
68511;SHT31;55512;50.102;19.958;2024-03-08T09:57:29;5.60;59.46
68511;SHT31;55512;50.102;19.958;2024-03-08T10:04:04;5.52;59.60
68511;SHT31;55512;50.102;19.958;2024-03-08T10:06:42;5.47;59.60
68511;SHT31;55512;50.102;19.958;2024-03-08T10:09:32;5.45;59.56
68511;SHT31;55512;50.102;19.958;2024-03-08T10:12:00;5.43;59.47
68511;SHT31;55512;50.102;19.958;2024-03-08T10:14:52;5.41;59.45
68511;SHT31;55512;50.102;19.958;2024-03-08T10:17:43;5.42;59.48
68511;SHT31;55512;50.102;19.958;2024-03-08T10:20:16;5.42;59.46
68511;SHT31;55512;50.102;19.958;2024-03-08T10:22:52;5.45;59.59
68511;SHT31;55512;50.102;19.958;2024-03-08T10:25:53;5.45;59.56
68511;SHT31;55512;50.102;19.958;2024-03-08T10:28:23;5.44;59.42
68511;SHT31;55512;50.102;19.958;2024-03-08T10:30:53;5.35;59.50
68511;SHT31;55512;50.102;19.958;2024-03-08T10:33:23;5.33;59.75
68511;SHT31;55512;50.102;19.958;2024-03-08T10:35:57;5.38;59.93
68511;SHT31;55512;50.102;19.958;2024-03-08T10:41:29;5.66;59.83
68511;SHT31;55512;50.102;19.958;2024-03-08T10:47:17;5.90;59.39
68511;SHT31;55512;50.102;19.958;2024-03-08T10:52:53;5.97;59.37
68511;SHT31;55512;50.102;19.958;2024-03-08T10:55:35;6.00;59.52
68511;SHT31;55512;50.102;19.958;2024-03-08T10:58:11;6.03;59.55
68511;SHT31;55512;50.102;19.958;2024-03-08T11:00:54;5.99;59.30
68511;SHT31;55512;50.102;19.958;2024-03-08T11:03:43;5.98;59.57
68511;SHT31;55512;50.102;19.958;2024-03-08T11:15:37;6.02;59.46
68511;SHT31;55512;50.102;19.958;2024-03-08T11:18:07;6.03;59.85
68511;SHT31;55512;50.102;19.958;2024-03-08T11:23:39;6.05;59.88
68511;SHT31;55512;50.102;19.958;2024-03-08T11:26:17;6.09;60.02
68511;SHT31;55512;50.102;19.958;2024-03-08T11:32:10;6.17;60.17
68511;SHT31;55512;50.102;19.958;2024-03-08T11:34:49;6.24;60.30
68511;SHT31;55512;50.102;19.958;2024-03-08T11:37:30;6.33;60.16
68511;SHT31;55512;50.102;19.958;2024-03-08T11:40:05;6.38;59.99
68511;SHT31;55512;50.102;19.958;2024-03-08T11:42:50;6.48;60.07
68511;SHT31;55512;50.102;19.958;2024-03-08T11:45:32;6.55;59.79
68511;SHT31;55512;50.102;19.958;2024-03-08T11:48:02;6.61;59.63
68511;SHT31;55512;50.102;19.958;2024-03-08T11:50:32;6.67;59.39
68511;SHT31;55512;50.102;19.958;2024-03-08T11:53:02;6.66;58.93
68511;SHT31;55512;50.102;19.958;2024-03-08T11:55:50;6.70;59.14
68511;SHT31;55512;50.102;19.958;2024-03-08T11:58:19;6.78;58.84
68511;SHT31;55512;50.102;19.958;2024-03-08T12:00:48;6.80;58.60
68511;SHT31;55512;50.102;19.958;2024-03-08T12:03:32;6.91;58.87
68511;SHT31;55512;50.102;19.958;2024-03-08T12:09:01;7.19;58.85
68511;SHT31;55512;50.102;19.958;2024-03-08T12:11:27;7.30;58.75
68511;SHT31;55512;50.102;19.958;2024-03-08T12:13:53;7.42;59.00
68511;SHT31;55512;50.102;19.958;2024-03-08T12:16:25;7.54;58.98
68511;SHT31;55512;50.102;19.958;2024-03-08T12:18:55;7.63;58.76
68511;SHT31;55512;50.102;19.958;2024-03-08T12:21:37;7.71;58.34
68511;SHT31;55512;50.102;19.958;2024-03-08T12:24:18;7.72;58.15
68511;SHT31;55512;50.102;19.958;2024-03-08T12:30:23;7.88;58.16
68511;SHT31;55512;50.102;19.958;2024-03-08T12:34:13;8.06;57.52
68511;SHT31;55512;50.102;19.958;2024-03-08T12:36:51;8.21;57.61
68511;SHT31;55512;50.102;19.958;2024-03-08T12:42:55;8.52;56.81
68511;SHT31;55512;50.102;19.958;2024-03-08T12:45:26;8.63;56.71
68511;SHT31;55512;50.102;19.958;2024-03-08T12:51:40;8.92;56.33
68511;SHT31;55512;50.102;19.958;2024-03-08T12:54:35;9.03;56.19
68511;SHT31;55512;50.102;19.958;2024-03-08T12:57:21;9.18;56.00
68511;SHT31;55512;50.102;19.958;2024-03-08T12:59:58;9.23;55.51
68511;SHT31;55512;50.102;19.958;2024-03-08T13:02:51;9.27;55.55
68511;SHT31;55512;50.102;19.958;2024-03-08T13:05:20;9.33;55.49
68511;SHT31;55512;50.102;19.958;2024-03-08T13:07:48;9.23;53.86
68511;SHT31;55512;50.102;19.958;2024-03-08T13:12:53;8.94;54.84
68511;SHT31;55512;50.102;19.958;2024-03-08T13:15:42;9.03;55.08
68511;SHT31;55512;50.102;19.958;2024-03-08T13:18:25;9.11;55.15
68511;SHT31;55512;50.102;19.958;2024-03-08T13:21:02;9.24;55.27
68511;SHT31;55512;50.102;19.958;2024-03-08T13:26:43;9.51;54.99
68511;SHT31;55512;50.102;19.958;2024-03-08T13:29:24;9.55;54.36
68511;SHT31;55512;50.102;19.958;2024-03-08T13:32:11;9.57;54.44
68511;SHT31;55512;50.102;19.958;2024-03-08T13:34:48;9.68;54.78
68511;SHT31;55512;50.102;19.958;2024-03-08T13:37:47;9.81;54.68
68511;SHT31;55512;50.102;19.958;2024-03-08T13:41:26;10.00;54.14
68511;SHT31;55512;50.102;19.958;2024-03-08T13:47:14;10.10;53.45
68511;SHT31;55512;50.102;19.958;2024-03-08T13:50:23;10.08;53.35
68511;SHT31;55512;50.102;19.958;2024-03-08T13:52:52;10.14;53.59
68511;SHT31;55512;50.102;19.958;2024-03-08T13:55:26;10.22;53.02
68511;SHT31;55512;50.102;19.958;2024-03-08T13:57:54;10.23;53.27
68511;SHT31;55512;50.102;19.958;2024-03-08T14:00:24;10.30;53.10
68511;SHT31;55512;50.102;19.958;2024-03-08T14:05:54;10.53;52.99
68511;SHT31;55512;50.102;19.958;2024-03-08T14:08:23;10.61;53.04
68511;SHT31;55512;50.102;19.958;2024-03-08T14:11:20;10.72;52.87
68511;SHT31;55512;50.102;19.958;2024-03-08T14:13:51;10.80;52.33
68511;SHT31;55512;50.102;19.958;2024-03-08T14:16:40;10.82;52.18
68511;SHT31;55512;50.102;19.958;2024-03-08T14:20:03;10.92;52.47
68511;SHT31;55512;50.102;19.958;2024-03-08T14:22:35;11.05;52.28
68511;SHT31;55512;50.102;19.958;2024-03-08T14:25:05;11.15;52.29
68511;SHT31;55512;50.102;19.958;2024-03-08T14:27:43;11.25;52.06
68511;SHT31;55512;50.102;19.958;2024-03-08T14:30:33;11.36;52.01
68511;SHT31;55512;50.102;19.958;2024-03-08T14:33:05;11.43;51.54
68511;SHT31;55512;50.102;19.958;2024-03-08T14:35:44;11.49;51.64
68511;SHT31;55512;50.102;19.958;2024-03-08T14:38:14;11.57;51.30
68511;SHT31;55512;50.102;19.958;2024-03-08T14:41:06;11.54;50.67
68511;SHT31;55512;50.102;19.958;2024-03-08T14:44:02;11.46;50.49
68511;SHT31;55512;50.102;19.958;2024-03-08T14:46:46;11.43;50.49
68511;SHT31;55512;50.102;19.958;2024-03-08T14:49:13;11.39;50.55
68511;SHT31;55512;50.102;19.958;2024-03-08T14:51:42;11.40;50.94
68511;SHT31;55512;50.102;19.958;2024-03-08T14:57:39;11.49;50.94
68511;SHT31;55512;50.102;19.958;2024-03-08T15:00:17;11.53;50.77
68511;SHT31;55512;50.102;19.958;2024-03-08T15:03:07;11.56;50.78
68511;SHT31;55512;50.102;19.958;2024-03-08T15:05:52;11.59;50.73
68511;SHT31;55512;50.102;19.958;2024-03-08T15:08:38;11.62;50.69
68511;SHT31;55512;50.102;19.958;2024-03-08T15:13:57;11.59;50.20
68511;SHT31;55512;50.102;19.958;2024-03-08T15:16:34;11.58;50.26
68511;SHT31;55512;50.102;19.958;2024-03-08T15:19:07;11.58;50.25
68511;SHT31;55512;50.102;19.958;2024-03-08T15:21:47;11.59;50.30
68511;SHT31;55512;50.102;19.958;2024-03-08T15:24:32;11.59;50.11
68511;SHT31;55512;50.102;19.958;2024-03-08T15:28:44;11.56;50.06
68511;SHT31;55512;50.102;19.958;2024-03-08T15:31:36;11.53;50.01
68511;SHT31;55512;50.102;19.958;2024-03-08T15:37:45;11.44;50.11
68511;SHT31;55512;50.102;19.958;2024-03-08T15:46:30;11.29;50.17
68511;SHT31;55512;50.102;19.958;2024-03-08T15:49:03;11.23;50.19
68511;SHT31;55512;50.102;19.958;2024-03-08T15:51:35;11.15;50.14
68511;SHT31;55512;50.102;19.958;2024-03-08T15:54:24;11.08;50.21
68511;SHT31;55512;50.102;19.958;2024-03-08T15:56:57;10.99;50.17
68511;SHT31;55512;50.102;19.958;2024-03-08T15:59:37;10.89;50.27
68511;SHT31;55512;50.102;19.958;2024-03-08T16:02:13;10.77;50.21
68511;SHT31;55512;50.102;19.958;2024-03-08T16:04:53;10.66;50.36
68511;SHT31;55512;50.102;19.958;2024-03-08T16:07:35;10.56;50.51
68511;SHT31;55512;50.102;19.958;2024-03-08T16:13:02;10.18;50.45
68511;SHT31;55512;50.102;19.958;2024-03-08T16:15:36;9.91;50.77
68511;SHT31;55512;50.102;19.958;2024-03-08T16:18:03;9.74;51.07
68511;SHT31;55512;50.102;19.958;2024-03-08T16:20:41;9.56;51.38
68511;SHT31;55512;50.102;19.958;2024-03-08T16:23:34;9.37;51.64
68511;SHT31;55512;50.102;19.958;2024-03-08T16:29:04;8.97;52.13
68511;SHT31;55512;50.102;19.958;2024-03-08T16:31:35;8.77;52.40
68511;SHT31;55512;50.102;19.958;2024-03-08T16:34:16;8.55;52.62
68511;SHT31;55512;50.102;19.958;2024-03-08T16:36:45;8.25;52.89
68511;SHT31;55512;50.102;19.958;2024-03-08T16:39:35;7.99;53.36
68511;SHT31;55512;50.102;19.958;2024-03-08T16:45:01;7.58;54.06
68511;SHT31;55512;50.102;19.958;2024-03-08T16:47:42;7.37;54.46
68511;SHT31;55512;50.102;19.958;2024-03-08T16:50:44;7.18;54.98
68511;SHT31;55512;50.102;19.958;2024-03-08T16:53:29;6.96;55.46
68511;SHT31;55512;50.102;19.958;2024-03-08T16:56:15;6.79;55.78
68511;SHT31;55512;50.102;19.958;2024-03-08T16:58:52;6.61;56.09
68511;SHT31;55512;50.102;19.958;2024-03-08T17:01:28;6.46;56.40
68511;SHT31;55512;50.102;19.958;2024-03-08T17:04:06;6.29;56.72
68511;SHT31;55512;50.102;19.958;2024-03-08T17:06:46;6.12;57.05
68511;SHT31;55512;50.102;19.958;2024-03-08T17:09:22;5.97;57.43
68511;SHT31;55512;50.102;19.958;2024-03-08T17:11:54;5.83;57.75
68511;SHT31;55512;50.102;19.958;2024-03-08T17:14:23;5.71;58.10
68511;SHT31;55512;50.102;19.958;2024-03-08T17:17:16;5.57;58.47
68511;SHT31;55512;50.102;19.958;2024-03-08T17:19:51;5.44;58.75
68511;SHT31;55512;50.102;19.958;2024-03-08T17:22:24;5.32;59.04
68511;SHT31;55512;50.102;19.958;2024-03-08T17:24:56;5.20;59.36
68511;SHT31;55512;50.102;19.958;2024-03-08T17:27:26;5.07;59.70
68511;SHT31;55512;50.102;19.958;2024-03-08T17:29:57;4.97;60.04
68511;SHT31;55512;50.102;19.958;2024-03-08T17:33:05;4.87;60.40
68511;SHT31;55512;50.102;19.958;2024-03-08T17:35:34;4.77;60.73
68511;SHT31;55512;50.102;19.958;2024-03-08T17:38:00;4.66;61.06
68511;SHT31;55512;50.102;19.958;2024-03-08T17:40:35;4.59;61.31
68511;SHT31;55512;50.102;19.958;2024-03-08T17:43:07;4.52;61.56
68511;SHT31;55512;50.102;19.958;2024-03-08T17:45:41;4.45;61.86
68511;SHT31;55512;50.102;19.958;2024-03-08T17:48:25;4.39;62.16
68511;SHT31;55512;50.102;19.958;2024-03-08T17:50:51;4.31;62.37
68511;SHT31;55512;50.102;19.958;2024-03-08T17:53:19;4.24;62.61
68511;SHT31;55512;50.102;19.958;2024-03-08T17:55:47;4.16;62.84
68511;SHT31;55512;50.102;19.958;2024-03-08T17:58:17;4.08;63.04
68511;SHT31;55512;50.102;19.958;2024-03-08T18:00:55;4.03;63.44
68511;SHT31;55512;50.102;19.958;2024-03-08T18:03:38;3.93;63.57
68511;SHT31;55512;50.102;19.958;2024-03-08T18:06:14;3.86;63.78
68511;SHT31;55512;50.102;19.958;2024-03-08T18:08:42;3.77;64.04
68511;SHT31;55512;50.102;19.958;2024-03-08T18:11:14;3.69;64.25
68511;SHT31;55512;50.102;19.958;2024-03-08T18:13:40;3.60;64.42
68511;SHT31;55512;50.102;19.958;2024-03-08T18:16:06;3.52;64.70
68511;SHT31;55512;50.102;19.958;2024-03-08T18:18:32;3.44;64.93
68511;SHT31;55512;50.102;19.958;2024-03-08T18:20:58;3.39;65.20
68511;SHT31;55512;50.102;19.958;2024-03-08T18:23:24;3.32;65.38
68511;SHT31;55512;50.102;19.958;2024-03-08T18:25:49;3.23;65.56
68511;SHT31;55512;50.102;19.958;2024-03-08T18:28:15;3.16;65.79
68511;SHT31;55512;50.102;19.958;2024-03-08T18:30:42;3.07;66.00
68511;SHT31;55512;50.102;19.958;2024-03-08T18:33:10;3.00;66.28
68511;SHT31;55512;50.102;19.958;2024-03-08T18:35:37;2.95;66.45
68511;SHT31;55512;50.102;19.958;2024-03-08T18:38:06;2.95;66.59
68511;SHT31;55512;50.102;19.958;2024-03-08T18:40:36;2.90;66.73
68511;SHT31;55512;50.102;19.958;2024-03-08T18:43:05;2.81;66.93
68511;SHT31;55512;50.102;19.958;2024-03-08T18:46:12;2.71;67.30
68511;SHT31;55512;50.102;19.958;2024-03-08T18:49:06;2.64;67.56
68511;SHT31;55512;50.102;19.958;2024-03-08T18:51:43;2.59;67.83
68511;SHT31;55512;50.102;19.958;2024-03-08T18:54:30;2.53;67.95
68511;SHT31;55512;50.102;19.958;2024-03-08T18:57:19;2.50;68.15
68511;SHT31;55512;50.102;19.958;2024-03-08T19:00:05;2.45;68.26
68511;SHT31;55512;50.102;19.958;2024-03-08T19:03:00;2.34;68.44
68511;SHT31;55512;50.102;19.958;2024-03-08T19:05:39;2.25;68.67
68511;SHT31;55512;50.102;19.958;2024-03-08T19:08:19;2.17;68.92
68511;SHT31;55512;50.102;19.958;2024-03-08T19:10:57;2.12;69.15
68511;SHT31;55512;50.102;19.958;2024-03-08T19:13:29;2.09;69.24
68511;SHT31;55512;50.102;19.958;2024-03-08T19:15:58;2.03;69.40
68511;SHT31;55512;50.102;19.958;2024-03-08T19:18:29;1.99;69.56
68511;SHT31;55512;50.102;19.958;2024-03-08T19:21:02;1.95;69.69
68511;SHT31;55512;50.102;19.958;2024-03-08T19:23:37;1.90;69.86
68511;SHT31;55512;50.102;19.958;2024-03-08T19:26:03;1.87;70.01
68511;SHT31;55512;50.102;19.958;2024-03-08T19:28:37;1.83;70.11
68511;SHT31;55512;50.102;19.958;2024-03-08T19:31:05;1.77;70.25
68511;SHT31;55512;50.102;19.958;2024-03-08T19:33:41;1.73;70.42
68511;SHT31;55512;50.102;19.958;2024-03-08T19:36:17;1.69;70.57
68511;SHT31;55512;50.102;19.958;2024-03-08T19:39:04;1.65;70.75
68511;SHT31;55512;50.102;19.958;2024-03-08T19:41:30;1.64;70.95
68511;SHT31;55512;50.102;19.958;2024-03-08T19:43:57;1.64;71.03
68511;SHT31;55512;50.102;19.958;2024-03-08T19:46:26;1.65;71.13
68511;SHT31;55512;50.102;19.958;2024-03-08T19:48:57;1.62;71.21
68511;SHT31;55512;50.102;19.958;2024-03-08T19:51:27;1.59;71.33
68511;SHT31;55512;50.102;19.958;2024-03-08T19:53:59;1.53;71.45
68511;SHT31;55512;50.102;19.958;2024-03-08T19:56:34;1.49;71.53